sensor_id;sensor_type;location;lat;lon;timestamp;pressure;altitude;pressure_sealevel;temperature;humidity
26563;BME280;14217;50.986;5.826;2023-09-19T00:03:49;100280.16;;;27.70;43.35
26563;BME280;14217;50.986;5.826;2023-09-19T00:08:54;100288.41;;;27.68;43.11
26563;BME280;14217;50.986;5.826;2023-09-19T00:13:57;100288.81;;;27.73;43.15
26563;BME280;14217;50.986;5.826;2023-09-19T00:19:01;100297.19;;;27.70;43.27
26563;BME280;14217;50.986;5.826;2023-09-19T00:24:04;100298.28;;;27.68;42.94
26563;BME280;14217;50.986;5.826;2023-09-19T00:29:07;100305.38;;;27.69;42.98
26563;BME280;14217;50.986;5.826;2023-09-19T00:34:10;100308.78;;;27.71;43.00
26563;BME280;14217;50.986;5.826;2023-09-19T00:39:12;100319.56;;;27.71;42.91
26563;BME280;14217;50.986;5.826;2023-09-19T00:44:15;100315.44;;;27.67;42.85
26563;BME280;14217;50.986;5.826;2023-09-19T00:49:17;100327.06;;;27.67;42.95
26563;BME280;14217;50.986;5.826;2023-09-19T00:54:22;100330.47;;;27.69;42.98
26563;BME280;14217;50.986;5.826;2023-09-19T00:59:24;100334.88;;;27.70;42.65
26563;BME280;14217;50.986;5.826;2023-09-19T01:04:26;100345.06;;;27.67;42.97
26563;BME280;14217;50.986;5.826;2023-09-19T01:09:29;100351.72;;;27.72;42.77
26563;BME280;14217;50.986;5.826;2023-09-19T01:15:25;100356.41;;;27.70;42.60
26563;BME280;14217;50.986;5.826;2023-09-19T01:26:15;100377.34;;;27.67;42.69
26563;BME280;14217;50.986;5.826;2023-09-19T01:31:21;100373.81;;;27.66;42.70
26563;BME280;14217;50.986;5.826;2023-09-19T01:36:32;100381.16;;;27.74;42.33
26563;BME280;14217;50.986;5.826;2023-09-19T01:41:54;100370.53;;;27.63;42.37
26563;BME280;14217;50.986;5.826;2023-09-19T01:47:02;100377.94;;;27.70;42.38
26563;BME280;14217;50.986;5.826;2023-09-19T01:52:10;100379.91;;;27.68;42.38
26563;BME280;14217;50.986;5.826;2023-09-19T01:57:22;100383.31;;;27.70;42.39
26563;BME280;14217;50.986;5.826;2023-09-19T02:02:30;100373.66;;;27.68;42.30
26563;BME280;14217;50.986;5.826;2023-09-19T02:07:32;100386.69;;;27.63;42.35
26563;BME280;14217;50.986;5.826;2023-09-19T02:12:35;100386.69;;;27.63;42.25
26563;BME280;14217;50.986;5.826;2023-09-19T02:17:37;100389.25;;;27.64;42.27
26563;BME280;14217;50.986;5.826;2023-09-19T02:22:42;100386.94;;;27.60;42.55
26563;BME280;14217;50.986;5.826;2023-09-19T02:27:46;100385.41;;;27.67;42.21
26563;BME280;14217;50.986;5.826;2023-09-19T02:32:48;100381.88;;;27.66;42.09
26563;BME280;14217;50.986;5.826;2023-09-19T02:37:51;100389.38;;;27.63;42.29
26563;BME280;14217;50.986;5.826;2023-09-19T02:42:55;100396.06;;;27.68;41.93
26563;BME280;14217;50.986;5.826;2023-09-19T02:47:57;100401.44;;;27.68;41.98
26563;BME280;14217;50.986;5.826;2023-09-19T02:53:00;100395.59;;;27.63;41.94
26563;BME280;14217;50.986;5.826;2023-09-19T02:58:02;100389.25;;;27.64;42.09
26563;BME280;14217;50.986;5.826;2023-09-19T03:03:04;100405.94;;;27.68;42.01
26563;BME280;14217;50.986;5.826;2023-09-19T03:08:08;100403.84;;;27.71;41.54
26563;BME280;14217;50.986;5.826;2023-09-19T03:13:10;100402.84;;;27.63;41.84
26563;BME280;14217;50.986;5.826;2023-09-19T03:18:13;100402.13;;;27.61;41.83
26563;BME280;14217;50.986;5.826;2023-09-19T03:23:15;100405.53;;;27.63;41.99
26563;BME280;14217;50.986;5.826;2023-09-19T03:28:18;100406.91;;;27.57;41.73
26563;BME280;14217;50.986;5.826;2023-09-19T03:33:22;100411.63;;;27.65;41.82
26563;BME280;14217;50.986;5.826;2023-09-19T03:38:27;100421.09;;;27.59;41.88
26563;BME280;14217;50.986;5.826;2023-09-19T03:43:32;100422.09;;;27.58;42.19
26563;BME280;14217;50.986;5.826;2023-09-19T03:48:35;100415.00;;;27.57;42.12
26563;BME280;14217;50.986;5.826;2023-09-19T03:53:37;100414.72;;;27.60;42.09
26563;BME280;14217;50.986;5.826;2023-09-19T03:58:39;100409.06;;;27.63;42.20
26563;BME280;14217;50.986;5.826;2023-09-19T04:03:42;100408.22;;;27.63;42.11
26563;BME280;14217;50.986;5.826;2023-09-19T04:08:50;100404.69;;;27.62;42.15
26563;BME280;14217;50.986;5.826;2023-09-19T04:13:52;100408.47;;;27.60;42.15
26563;BME280;14217;50.986;5.826;2023-09-19T04:18:54;100402.53;;;27.56;42.12
26563;BME280;14217;50.986;5.826;2023-09-19T04:23:56;100406.22;;;27.55;42.19
26563;BME280;14217;50.986;5.826;2023-09-19T04:28:59;100420.38;;;27.57;41.87
26563;BME280;14217;50.986;5.826;2023-09-19T04:34:02;100408.19;;;27.53;41.95
26563;BME280;14217;50.986;5.826;2023-09-19T04:39:05;100417.84;;;27.55;41.96
26563;BME280;14217;50.986;5.826;2023-09-19T04:44:07;100421.09;;;27.59;42.03
26563;BME280;14217;50.986;5.826;2023-09-19T04:49:10;100424.06;;;27.56;42.00
26563;BME280;14217;50.986;5.826;2023-09-19T04:54:12;100423.47;;;27.52;41.66
26563;BME280;14217;50.986;5.826;2023-09-19T04:59:14;100437.38;;;27.57;41.76
26563;BME280;14217;50.986;5.826;2023-09-19T05:04:17;100438.38;;;27.56;41.78
26563;BME280;14217;50.986;5.826;2023-09-19T05:09:19;100445.13;;;27.51;41.71
26563;BME280;14217;50.986;5.826;2023-09-19T05:14:22;100466.94;;;27.48;41.84
26563;BME280;14217;50.986;5.826;2023-09-19T05:19:24;100474.34;;;27.55;41.46
26563;BME280;14217;50.986;5.826;2023-09-19T05:24:26;100467.66;;;27.50;41.52
26563;BME280;14217;50.986;5.826;2023-09-19T05:29:28;100474.50;;;27.54;41.50
26563;BME280;14217;50.986;5.826;2023-09-19T05:34:31;100487.34;;;27.50;41.87
26563;BME280;14217;50.986;5.826;2023-09-19T05:39:33;100498.97;;;27.51;41.72
26563;BME280;14217;50.986;5.826;2023-09-19T05:44:35;100508.88;;;27.50;41.67
26563;BME280;14217;50.986;5.826;2023-09-19T05:49:38;100505.06;;;27.53;41.78
26563;BME280;14217;50.986;5.826;2023-09-19T05:54:42;100514.25;;;27.50;41.59
26563;BME280;14217;50.986;5.826;2023-09-19T05:59:44;100509.72;;;27.51;41.65
26563;BME280;14217;50.986;5.826;2023-09-19T06:04:47;100515.81;;;27.53;41.50
26563;BME280;14217;50.986;5.826;2023-09-19T06:09:49;100498.25;;;27.49;41.50
26563;BME280;14217;50.986;5.826;2023-09-19T06:14:51;100511.25;;;27.44;41.71
26563;BME280;14217;50.986;5.826;2023-09-19T06:19:53;100510.41;;;27.43;41.62
26563;BME280;14217;50.986;5.826;2023-09-19T06:24:57;100497.53;;;27.47;41.46
26563;BME280;14217;50.986;5.826;2023-09-19T06:29:59;100502.53;;;27.51;41.36
26563;BME280;14217;50.986;5.826;2023-09-19T06:35:04;100503.78;;;27.47;40.99
26563;BME280;14217;50.986;5.826;2023-09-19T06:40:10;100507.03;;;27.51;41.19
26563;BME280;14217;50.986;5.826;2023-09-19T06:45:15;100514.13;;;27.52;41.11
26563;BME280;14217;50.986;5.826;2023-09-19T06:50:21;100516.09;;;27.50;41.17
26563;BME280;14217;50.986;5.826;2023-09-19T06:55:25;100517.94;;;27.49;40.37
26563;BME280;14217;50.986;5.826;2023-09-19T07:00:30;100513.28;;;27.51;39.67
26563;BME280;14217;50.986;5.826;2023-09-19T07:05:34;100524.34;;;27.58;39.39
26563;BME280;14217;50.986;5.826;2023-09-19T07:10:42;100531.56;;;27.57;39.07
26563;BME280;14217;50.986;5.826;2023-09-19T07:15:51;100534.25;;;27.57;38.70
26563;BME280;14217;50.986;5.826;2023-09-19T07:20:59;100537.66;;;27.60;38.71
26563;BME280;14217;50.986;5.826;2023-09-19T07:26:06;100544.25;;;27.46;39.02
26563;BME280;14217;50.986;5.826;2023-09-19T07:31:08;100548.41;;;27.50;38.67
26563;BME280;14217;50.986;5.826;2023-09-19T07:36:11;100545.88;;;27.58;38.75
26563;BME280;14217;50.986;5.826;2023-09-19T07:41:15;100548.84;;;27.55;38.79
26563;BME280;14217;50.986;5.826;2023-09-19T07:46:17;100542.47;;;27.56;38.38
26563;BME280;14217;50.986;5.826;2023-09-19T07:51:19;100534.34;;;27.46;38.81
26563;BME280;14217;50.986;5.826;2023-09-19T07:56:21;100542.28;;;27.48;38.79
26563;BME280;14217;50.986;5.826;2023-09-19T08:01:24;100538.47;;;27.50;38.73
26563;BME280;14217;50.986;5.826;2023-09-19T08:06:29;100543.84;;;27.50;38.65
26563;BME280;14217;50.986;5.826;2023-09-19T08:11:32;100542.81;;;27.42;38.68
26563;BME280;14217;50.986;5.826;2023-09-19T08:16:34;100545.22;;;27.35;38.75
26563;BME280;14217;50.986;5.826;2023-09-19T08:21:37;100543.97;;;27.49;38.35
26563;BME280;14217;50.986;5.826;2023-09-19T08:26:39;100550.63;;;27.45;38.47
26563;BME280;14217;50.986;5.826;2023-09-19T08:31:41;100553.47;;;27.43;38.56
26563;BME280;14217;50.986;5.826;2023-09-19T08:36:43;100566.22;;;27.51;38.46
26563;BME280;14217;50.986;5.826;2023-09-19T08:41:46;100570.31;;;27.45;37.34
26563;BME280;14217;50.986;5.826;2023-09-19T08:46:49;100568.41;;;27.36;37.32
26563;BME280;14217;50.986;5.826;2023-09-19T08:52:03;100565.69;;;27.57;37.20
26563;BME280;14217;50.986;5.826;2023-09-19T08:57:07;100563.19;;;27.65;37.39
26563;BME280;14217;50.986;5.826;2023-09-19T09:02:14;100560.78;;;27.62;37.85
26563;BME280;14217;50.986;5.826;2023-09-19T09:07:17;100561.94;;;27.69;37.59
26563;BME280;14217;50.986;5.826;2023-09-19T09:12:21;100554.31;;;27.74;37.78
26563;BME280;14217;50.986;5.826;2023-09-19T09:17:24;100539.28;;;27.72;38.09
26563;BME280;14217;50.986;5.826;2023-09-19T09:22:26;100546.94;;;27.76;37.87
26563;BME280;14217;50.986;5.826;2023-09-19T09:27:28;100541.53;;;27.76;37.96
26563;BME280;14217;50.986;5.826;2023-09-19T09:32:30;100537.03;;;27.77;38.12
26563;BME280;14217;50.986;5.826;2023-09-19T09:37:46;100541.53;;;27.76;38.32
26563;BME280;14217;50.986;5.826;2023-09-19T09:42:49;100549.06;;;27.73;38.39
26563;BME280;14217;50.986;5.826;2023-09-19T09:47:54;100536.16;;;27.76;38.03
26563;BME280;14217;50.986;5.826;2023-09-19T09:52:59;100545.97;;;27.77;38.26
26563;BME280;14217;50.986;5.826;2023-09-19T09:58:17;100531.50;;;27.78;38.55
26563;BME280;14217;50.986;5.826;2023-09-19T10:03:20;100531.66;;;27.77;38.37
26563;BME280;14217;50.986;5.826;2023-09-19T10:08:23;100536.16;;;27.76;38.55
26563;BME280;14217;50.986;5.826;2023-09-19T10:13:28;100532.50;;;27.77;38.43
26563;BME280;14217;50.986;5.826;2023-09-19T10:18:36;100525.41;;;27.76;38.58
26563;BME280;14217;50.986;5.826;2023-09-19T10:23:42;100530.09;;;27.74;38.59
26563;BME280;14217;50.986;5.826;2023-09-19T10:28:46;100522.16;;;27.73;38.62
26563;BME280;14217;50.986;5.826;2023-09-19T10:33:51;100524.84;;;27.73;38.77
26563;BME280;14217;50.986;5.826;2023-09-19T10:38:56;100518.31;;;27.75;38.77
26563;BME280;14217;50.986;5.826;2023-09-19T10:44:04;100525.81;;;27.72;38.68
26563;BME280;14217;50.986;5.826;2023-09-19T10:49:10;100527.22;;;27.66;39.07
26563;BME280;14217;50.986;5.826;2023-09-19T10:54:16;100517.97;;;27.59;39.31
26563;BME280;14217;50.986;5.826;2023-09-19T10:59:20;100520.97;;;27.66;38.89
26563;BME280;14217;50.986;5.826;2023-09-19T11:09:49;100536.41;;;27.64;38.97
26563;BME280;14217;50.986;5.826;2023-09-19T11:15:01;100526.88;;;27.50;37.32
26563;BME280;14217;50.986;5.826;2023-09-19T11:25:45;100522.97;;;27.33;36.99
26563;BME280;14217;50.986;5.826;2023-09-19T11:30:52;100519.47;;;27.42;36.95
26563;BME280;14217;50.986;5.826;2023-09-19T11:41:37;100510.63;;;27.30;36.58
26563;BME280;14217;50.986;5.826;2023-09-19T11:46:53;100500.31;;;27.35;36.49
26563;BME280;14217;50.986;5.826;2023-09-19T11:51:56;100500.44;;;27.34;36.53
26563;BME280;14217;50.986;5.826;2023-09-19T11:57:00;100502.28;;;27.33;36.30
26563;BME280;14217;50.986;5.826;2023-09-19T12:02:06;100497.03;;;27.32;35.48
26563;BME280;14217;50.986;5.826;2023-09-19T12:07:14;100489.44;;;27.16;35.04
26563;BME280;14217;50.986;5.826;2023-09-19T12:12:28;100487.53;;;27.07;34.47
26563;BME280;14217;50.986;5.826;2023-09-19T12:17:38;100485.84;;;27.06;34.30
26563;BME280;14217;50.986;5.826;2023-09-19T12:22:43;100484.59;;;27.10;34.54
26563;BME280;14217;50.986;5.826;2023-09-19T12:27:48;100480.53;;;27.15;34.89
26563;BME280;14217;50.986;5.826;2023-09-19T12:32:54;100457.72;;;27.20;35.27
26563;BME280;14217;50.986;5.826;2023-09-19T12:38:01;100457.50;;;27.23;35.53
26563;BME280;14217;50.986;5.826;2023-09-19T12:43:06;100444.16;;;27.21;35.80
26563;BME280;14217;50.986;5.826;2023-09-19T12:48:19;100445.63;;;27.25;36.04
26563;BME280;14217;50.986;5.826;2023-09-19T12:53:38;100453.06;;;27.22;36.13
26563;BME280;14217;50.986;5.826;2023-09-19T12:58:56;100457.59;;;27.21;35.75
26563;BME280;14217;50.986;5.826;2023-09-19T13:04:17;100475.06;;;27.06;35.46
26563;BME280;14217;50.986;5.826;2023-09-19T13:09:23;100473.94;;;27.08;35.46
26563;BME280;14217;50.986;5.826;2023-09-19T13:14:37;100468.69;;;27.28;35.28
26563;BME280;14217;50.986;5.826;2023-09-19T13:19:47;100481.47;;;27.35;35.57
26563;BME280;14217;50.986;5.826;2023-09-19T13:24:54;100474.41;;;27.34;35.81
26563;BME280;14217;50.986;5.826;2023-09-19T13:29:56;100468.34;;;27.42;35.82
26563;BME280;14217;50.986;5.826;2023-09-19T13:34:59;100457.44;;;27.44;35.83
26563;BME280;14217;50.986;5.826;2023-09-19T13:40:02;100470.44;;;27.38;36.36
26563;BME280;14217;50.986;5.826;2023-09-19T13:45:07;100452.31;;;27.41;36.31
26563;BME280;14217;50.986;5.826;2023-09-19T13:50:09;100459.84;;;27.47;36.33
26563;BME280;14217;50.986;5.826;2023-09-19T13:55:12;100460.97;;;27.44;36.64
26563;BME280;14217;50.986;5.826;2023-09-19T14:00:16;100465.81;;;27.50;36.55
26563;BME280;14217;50.986;5.826;2023-09-19T14:05:19;100451.66;;;27.48;36.68
26563;BME280;14217;50.986;5.826;2023-09-19T14:10:22;100463.97;;;27.51;36.89
26563;BME280;14217;50.986;5.826;2023-09-19T14:15:25;100474.19;;;27.57;37.05
26563;BME280;14217;50.986;5.826;2023-09-19T14:20:31;100466.53;;;27.52;36.88
26563;BME280;14217;50.986;5.826;2023-09-19T14:25:34;100458.34;;;27.54;36.98
26563;BME280;14217;50.986;5.826;2023-09-19T14:30:36;100454.09;;;27.51;37.22
26563;BME280;14217;50.986;5.826;2023-09-19T14:35:39;100465.38;;;27.45;37.54
26563;BME280;14217;50.986;5.826;2023-09-19T14:40:41;100448.38;;;27.45;37.51
26563;BME280;14217;50.986;5.826;2023-09-19T14:45:44;100462.88;;;27.53;37.41
26563;BME280;14217;50.986;5.826;2023-09-19T14:50:46;100461.16;;;27.52;37.29
26563;BME280;14217;50.986;5.826;2023-09-19T14:55:50;100467.97;;;27.56;37.32
26563;BME280;14217;50.986;5.826;2023-09-19T15:00:53;100452.38;;;27.50;37.54
26563;BME280;14217;50.986;5.826;2023-09-19T15:06:05;100447.66;;;27.43;37.57
26563;BME280;14217;50.986;5.826;2023-09-19T15:11:08;100448.38;;;27.45;37.70
26563;BME280;14217;50.986;5.826;2023-09-19T15:16:10;100450.91;;;27.36;38.22
26563;BME280;14217;50.986;5.826;2023-09-19T15:21:13;100441.25;;;27.34;38.13
26563;BME280;14217;50.986;5.826;2023-09-19T15:26:16;100436.63;;;27.46;37.94
26563;BME280;14217;50.986;5.826;2023-09-19T15:31:22;100438.03;;;27.40;37.95
26563;BME280;14217;50.986;5.826;2023-09-19T15:36:24;100420.63;;;27.44;37.75
26563;BME280;14217;50.986;5.826;2023-09-19T15:41:29;100407.28;;;27.43;38.24
26563;BME280;14217;50.986;5.826;2023-09-19T15:46:33;100429.25;;;27.38;38.09
26563;BME280;14217;50.986;5.826;2023-09-19T15:51:38;100412.13;;;27.39;38.07
26563;BME280;14217;50.986;5.826;2023-09-19T15:56:43;100414.34;;;27.34;38.25
26563;BME280;14217;50.986;5.826;2023-09-19T16:01:46;100425.41;;;27.41;38.09
26563;BME280;14217;50.986;5.826;2023-09-19T16:06:48;100419.72;;;27.34;38.24
26563;BME280;14217;50.986;5.826;2023-09-19T16:11:50;100418.75;;;27.35;38.35
26563;BME280;14217;50.986;5.826;2023-09-19T16:16:52;100424.56;;;27.40;37.99
26563;BME280;14217;50.986;5.826;2023-09-19T16:21:55;100424.28;;;27.33;38.33
26563;BME280;14217;50.986;5.826;2023-09-19T16:27:01;100422.84;;;27.29;38.42
26563;BME280;14217;50.986;5.826;2023-09-19T16:32:03;100427.69;;;27.35;38.20
26563;BME280;14217;50.986;5.826;2023-09-19T16:37:05;100432.47;;;27.32;38.35
26563;BME280;14217;50.986;5.826;2023-09-19T16:42:07;100431.91;;;27.28;38.65
26563;BME280;14217;50.986;5.826;2023-09-19T16:47:23;100440.22;;;27.25;38.59
26563;BME280;14217;50.986;5.826;2023-09-19T16:52:25;100430.47;;;27.24;38.72
26563;BME280;14217;50.986;5.826;2023-09-19T16:57:27;100413.47;;;27.24;38.67
26563;BME280;14217;50.986;5.826;2023-09-19T17:02:29;100418.06;;;27.33;37.97
26563;BME280;14217;50.986;5.826;2023-09-19T17:07:31;100430.59;;;27.23;38.44
26563;BME280;14217;50.986;5.826;2023-09-19T17:12:34;100428.13;;;27.20;38.58
26563;BME280;14217;50.986;5.826;2023-09-19T17:17:36;100436.56;;;27.26;38.57
26563;BME280;14217;50.986;5.826;2023-09-19T17:22:39;100442.22;;;27.23;38.71
26563;BME280;14217;50.986;5.826;2023-09-19T17:27:41;100445.50;;;27.27;38.60
26563;BME280;14217;50.986;5.826;2023-09-19T17:32:45;100442.81;;;27.27;38.63
26563;BME280;14217;50.986;5.826;2023-09-19T17:37:47;100438.69;;;27.23;38.79
26563;BME280;14217;50.986;5.826;2023-09-19T17:42:49;100437.13;;;27.30;38.52
26563;BME280;14217;50.986;5.826;2023-09-19T17:47:52;100441.25;;;27.24;38.41
26563;BME280;14217;50.986;5.826;2023-09-19T17:52:56;100445.00;;;27.22;38.75
26563;BME280;14217;50.986;5.826;2023-09-19T17:57:58;100438.22;;;27.17;38.69
26563;BME280;14217;50.986;5.826;2023-09-19T18:03:01;100441.59;;;27.20;38.81
26563;BME280;14217;50.986;5.826;2023-09-19T18:08:05;100442.47;;;27.20;38.69
26563;BME280;14217;50.986;5.826;2023-09-19T18:13:07;100441.75;;;27.18;38.98
26563;BME280;14217;50.986;5.826;2023-09-19T18:18:11;100433.50;;;27.20;38.56
26563;BME280;14217;50.986;5.826;2023-09-19T18:23:13;100445.56;;;27.15;37.50
26563;BME280;14217;50.986;5.826;2023-09-19T18:28:16;100443.44;;;27.19;37.20
26563;BME280;14217;50.986;5.826;2023-09-19T18:33:19;100445.16;;;27.20;37.65
26563;BME280;14217;50.986;5.826;2023-09-19T18:38:22;100447.13;;;27.18;37.52
26563;BME280;14217;50.986;5.826;2023-09-19T18:43:27;100443.97;;;27.13;37.81
26563;BME280;14217;50.986;5.826;2023-09-19T18:48:29;100443.41;;;27.09;38.27
26563;BME280;14217;50.986;5.826;2023-09-19T18:53:31;100453.28;;;27.09;38.07
26563;BME280;14217;50.986;5.826;2023-09-19T18:58:33;100441.25;;;27.03;38.10
26563;BME280;14217;50.986;5.826;2023-09-19T19:03:36;100439.66;;;27.01;38.29
26563;BME280;14217;50.986;5.826;2023-09-19T19:08:39;100429.06;;;26.99;38.60
26563;BME280;14217;50.986;5.826;2023-09-19T19:13:42;100417.72;;;26.95;38.47
26563;BME280;14217;50.986;5.826;2023-09-19T19:18:53;100431.03;;;26.97;38.78
26563;BME280;14217;50.986;5.826;2023-09-19T19:23:56;100434.97;;;26.93;38.49
26563;BME280;14217;50.986;5.826;2023-09-19T19:28:58;100436.34;;;26.87;38.79
26563;BME280;14217;50.986;5.826;2023-09-19T19:34:00;100447.16;;;26.76;39.61
26563;BME280;14217;50.986;5.826;2023-09-19T19:39:02;100446.31;;;26.75;38.73
26563;BME280;14217;50.986;5.826;2023-09-19T19:44:05;100445.25;;;26.67;39.05
26563;BME280;14217;50.986;5.826;2023-09-19T19:49:07;100431.50;;;26.81;38.31
26563;BME280;14217;50.986;5.826;2023-09-19T19:54:09;100431.81;;;26.88;37.89
26563;BME280;14217;50.986;5.826;2023-09-19T19:59:11;100444.94;;;26.81;38.12
26563;BME280;14217;50.986;5.826;2023-09-19T20:04:15;100439.56;;;26.81;38.03
26563;BME280;14217;50.986;5.826;2023-09-19T20:09:17;100443.25;;;26.80;37.78
26563;BME280;14217;50.986;5.826;2023-09-19T20:14:20;100443.38;;;26.79;37.72
26563;BME280;14217;50.986;5.826;2023-09-19T20:19:23;100446.03;;;26.79;38.08
26563;BME280;14217;50.986;5.826;2023-09-19T20:24:25;100440.41;;;26.82;38.16
26563;BME280;14217;50.986;5.826;2023-09-19T20:29:27;100443.03;;;26.72;38.72
26563;BME280;14217;50.986;5.826;2023-09-19T20:34:30;100428.34;;;26.76;39.01
26563;BME280;14217;50.986;5.826;2023-09-19T20:39:32;100427.22;;;26.79;39.11
26563;BME280;14217;50.986;5.826;2023-09-19T20:44:34;100426.50;;;26.76;39.25
26563;BME280;14217;50.986;5.826;2023-09-19T20:49:37;100415.97;;;26.64;40.29
26563;BME280;14217;50.986;5.826;2023-09-19T20:54:39;100428.88;;;26.70;40.25
26563;BME280;14217;50.986;5.826;2023-09-19T20:59:45;100422.38;;;26.72;40.09
26563;BME280;14217;50.986;5.826;2023-09-19T21:04:47;100423.63;;;26.68;40.52
26563;BME280;14217;50.986;5.826;2023-09-19T21:09:50;100408.50;;;26.67;40.50
26563;BME280;14217;50.986;5.826;2023-09-19T21:14:52;100419.50;;;26.64;40.42
26563;BME280;14217;50.986;5.826;2023-09-19T21:19:58;100410.78;;;26.72;40.36
26563;BME280;14217;50.986;5.826;2023-09-19T21:25:00;100406.75;;;26.87;39.90
26563;BME280;14217;50.986;5.826;2023-09-19T21:30:02;100409.03;;;26.92;39.67
26563;BME280;14217;50.986;5.826;2023-09-19T21:35:06;100395.47;;;26.93;39.81
26563;BME280;14217;50.986;5.826;2023-09-19T21:40:10;100404.84;;;26.99;39.79
26563;BME280;14217;50.986;5.826;2023-09-19T21:45:12;100393.38;;;26.97;39.80
26563;BME280;14217;50.986;5.826;2023-09-19T21:50:14;100399.00;;;26.94;39.54
26563;BME280;14217;50.986;5.826;2023-09-19T21:55:18;100399.00;;;26.94;39.88
26563;BME280;14217;50.986;5.826;2023-09-19T22:00:23;100399.41;;;26.89;39.84
26563;BME280;14217;50.986;5.826;2023-09-19T22:05:36;100391.09;;;26.92;39.74
26563;BME280;14217;50.986;5.826;2023-09-19T22:15:44;100378.63;;;26.91;39.86
26563;BME280;14217;50.986;5.826;2023-09-19T22:20:49;100387.41;;;26.93;39.73
26563;BME280;14217;50.986;5.826;2023-09-19T22:26:02;100385.00;;;26.90;40.00
26563;BME280;14217;50.986;5.826;2023-09-19T22:31:05;100387.53;;;26.92;39.95
26563;BME280;14217;50.986;5.826;2023-09-19T22:36:13;100386.69;;;26.91;39.84
26563;BME280;14217;50.986;5.826;2023-09-19T22:41:16;100386.09;;;26.88;39.97
26563;BME280;14217;50.986;5.826;2023-09-19T22:46:23;100381.19;;;26.93;39.72
26563;BME280;14217;50.986;5.826;2023-09-19T22:51:29;100392.66;;;26.95;39.87
26563;BME280;14217;50.986;5.826;2023-09-19T22:56:39;100389.38;;;26.91;39.86
26563;BME280;14217;50.986;5.826;2023-09-19T23:01:42;100390.63;;;26.87;39.75
26563;BME280;14217;50.986;5.826;2023-09-19T23:06:46;100393.63;;;26.94;39.82
26563;BME280;14217;50.986;5.826;2023-09-19T23:11:57;100395.47;;;26.93;39.74
26563;BME280;14217;50.986;5.826;2023-09-19T23:17:05;100392.38;;;26.98;39.80
26563;BME280;14217;50.986;5.826;2023-09-19T23:22:14;100391.81;;;26.94;40.03
26563;BME280;14217;50.986;5.826;2023-09-19T23:27:16;100392.06;;;26.91;39.80
26563;BME280;14217;50.986;5.826;2023-09-19T23:32:27;100383.03;;;26.92;39.92
26563;BME280;14217;50.986;5.826;2023-09-19T23:37:29;100386.16;;;26.97;39.84
26563;BME280;14217;50.986;5.826;2023-09-19T23:42:32;100386.69;;;26.91;39.96
26563;BME280;14217;50.986;5.826;2023-09-19T23:47:34;100387.53;;;26.92;39.90
26563;BME280;14217;50.986;5.826;2023-09-19T23:52:41;100382.75;;;26.95;39.90
26563;BME280;14217;50.986;5.826;2023-09-19T23:57:43;100379.47;;;26.92;39.91
